Channing, Texas
Current Conditions -  °F | °C
As of 9:15 PM on Thursday 18 Dec 2014 (Local Time) from KDUX Reporting Station
Overcast Overcast  
Wind Chill: 28°   Ceiling: 700
Heat Index: 33°   Visibility: 10mi
Dew Point: 30°   Wind: 5mph
Humidity: 91%   Direction: 70°ENE
Pressure: 30.13"   Gusts: NA
Location:  35.68°N, 102.33°W
Report Text: KDUX 190315Z AUTO 07004KT 10SM OVC007 00/M01 A3013 RMK AO2 T00031010
Loading
Personal Weather Stations






























Interactive Weather Map New forecast layout! Learn more

10-Day Weather Forecast

Advertisements
Track Severe Weather on mobile